sensor_id;sensor_type;location;lat;lon;timestamp;P1;durP1;ratioP1;P2;durP2;ratioP2
76636;SDS011;65532;52.124;5.480;2023-07-31T00:02:10;2.58;;;0.57;;
76636;SDS011;65532;52.124;5.480;2023-07-31T00:04:36;1.98;;;0.65;;
76636;SDS011;65532;52.124;5.480;2023-07-31T00:07:03;3.22;;;0.32;;
76636;SDS011;65532;52.124;5.480;2023-07-31T00:09:30;2.42;;;1.00;;
76636;SDS011;65532;52.124;5.480;2023-07-31T00:11:57;4.53;;;0.85;;
76636;SDS011;65532;52.124;5.480;2023-07-31T00:14:23;3.42;;;0.50;;
76636;SDS011;65532;52.124;5.480;2023-07-31T00:16:50;4.18;;;0.98;;
76636;SDS011;65532;52.124;5.480;2023-07-31T00:19:18;4.63;;;0.60;;
76636;SDS011;65532;52.124;5.480;2023-07-31T00:21:44;3.17;;;0.40;;
76636;SDS011;65532;52.124;5.480;2023-07-31T00:24:11;1.88;;;0.45;;
76636;SDS011;65532;52.124;5.480;2023-07-31T00:26:37;2.10;;;0.43;;
76636;SDS011;65532;52.124;5.480;2023-07-31T00:29:04;2.40;;;0.75;;
76636;SDS011;65532;52.124;5.480;2023-07-31T00:31:31;2.65;;;0.60;;
76636;SDS011;65532;52.124;5.480;2023-07-31T00:33:57;3.13;;;1.23;;
76636;SDS011;65532;52.124;5.480;2023-07-31T00:36:24;2.67;;;0.82;;
76636;SDS011;65532;52.124;5.480;2023-07-31T00:38:50;3.92;;;1.73;;
76636;SDS011;65532;52.124;5.480;2023-07-31T00:41:17;3.10;;;1.13;;
76636;SDS011;65532;52.124;5.480;2023-07-31T00:43:43;3.42;;;0.88;;
76636;SDS011;65532;52.124;5.480;2023-07-31T00:46:10;4.05;;;0.90;;
76636;SDS011;65532;52.124;5.480;2023-07-31T00:48:37;6.38;;;2.60;;
76636;SDS011;65532;52.124;5.480;2023-07-31T00:51:05;8.73;;;2.42;;
76636;SDS011;65532;52.124;5.480;2023-07-31T00:53:33;7.28;;;3.00;;
76636;SDS011;65532;52.124;5.480;2023-07-31T00:56:00;9.25;;;2.13;;
76636;SDS011;65532;52.124;5.480;2023-07-31T00:58:27;11.70;;;3.03;;
76636;SDS011;65532;52.124;5.480;2023-07-31T01:00:54;9.60;;;2.50;;
76636;SDS011;65532;52.124;5.480;2023-07-31T01:03:20;14.98;;;2.88;;
76636;SDS011;65532;52.124;5.480;2023-07-31T01:08:54;21.65;;;2.83;;
76636;SDS011;65532;52.124;5.480;2023-07-31T01:11:30;15.55;;;3.38;;
76636;SDS011;65532;52.124;5.480;2023-07-31T01:13:59;15.23;;;2.53;;
76636;SDS011;65532;52.124;5.480;2023-07-31T01:16:26;12.30;;;3.63;;
76636;SDS011;65532;52.124;5.480;2023-07-31T01:18:53;15.68;;;3.75;;
76636;SDS011;65532;52.124;5.480;2023-07-31T01:21:23;12.38;;;3.35;;
76636;SDS011;65532;52.124;5.480;2023-07-31T01:26:45;15.20;;;2.55;;
76636;SDS011;65532;52.124;5.480;2023-07-31T01:32:22;12.45;;;1.88;;
76636;SDS011;65532;52.124;5.480;2023-07-31T01:34:51;10.13;;;2.83;;
76636;SDS011;65532;52.124;5.480;2023-07-31T01:37:18;15.20;;;5.63;;
76636;SDS011;65532;52.124;5.480;2023-07-31T01:39:45;6.60;;;2.25;;
76636;SDS011;65532;52.124;5.480;2023-07-31T01:42:11;14.32;;;3.45;;
76636;SDS011;65532;52.124;5.480;2023-07-31T01:44:38;13.95;;;3.95;;
76636;SDS011;65532;52.124;5.480;2023-07-31T01:47:05;12.02;;;3.63;;
76636;SDS011;65532;52.124;5.480;2023-07-31T01:49:32;12.30;;;2.25;;
76636;SDS011;65532;52.124;5.480;2023-07-31T01:51:59;17.13;;;2.85;;
76636;SDS011;65532;52.124;5.480;2023-07-31T01:54:26;11.88;;;2.45;;
76636;SDS011;65532;52.124;5.480;2023-07-31T01:56:52;9.65;;;3.15;;
76636;SDS011;65532;52.124;5.480;2023-07-31T01:59:19;12.38;;;3.58;;
76636;SDS011;65532;52.124;5.480;2023-07-31T02:01:45;11.43;;;2.85;;
76636;SDS011;65532;52.124;5.480;2023-07-31T02:04:12;11.18;;;2.35;;
76636;SDS011;65532;52.124;5.480;2023-07-31T02:06:38;12.82;;;4.40;;
76636;SDS011;65532;52.124;5.480;2023-07-31T02:09:06;10.07;;;3.65;;
76636;SDS011;65532;52.124;5.480;2023-07-31T02:11:32;8.93;;;2.60;;
76636;SDS011;65532;52.124;5.480;2023-07-31T02:13:59;7.05;;;3.05;;
76636;SDS011;65532;52.124;5.480;2023-07-31T02:16:25;9.93;;;1.98;;
76636;SDS011;65532;52.124;5.480;2023-07-31T02:18:52;11.23;;;2.42;;
76636;SDS011;65532;52.124;5.480;2023-07-31T02:21:18;9.85;;;3.58;;
76636;SDS011;65532;52.124;5.480;2023-07-31T02:23:45;10.98;;;1.80;;
76636;SDS011;65532;52.124;5.480;2023-07-31T02:26:11;12.20;;;2.15;;
76636;SDS011;65532;52.124;5.480;2023-07-31T02:28:38;10.00;;;2.85;;
76636;SDS011;65532;52.124;5.480;2023-07-31T02:31:04;12.32;;;2.38;;
76636;SDS011;65532;52.124;5.480;2023-07-31T02:33:33;6.90;;;3.25;;
76636;SDS011;65532;52.124;5.480;2023-07-31T02:35:59;9.60;;;2.85;;
76636;SDS011;65532;52.124;5.480;2023-07-31T02:38:26;12.63;;;3.38;;
76636;SDS011;65532;52.124;5.480;2023-07-31T02:40:53;11.35;;;2.55;;
76636;SDS011;65532;52.124;5.480;2023-07-31T02:43:19;7.95;;;2.53;;
76636;SDS011;65532;52.124;5.480;2023-07-31T02:45:48;10.98;;;3.17;;
76636;SDS011;65532;52.124;5.480;2023-07-31T02:48:17;10.40;;;2.70;;
76636;SDS011;65532;52.124;5.480;2023-07-31T02:50:44;9.82;;;2.47;;
76636;SDS011;65532;52.124;5.480;2023-07-31T02:53:11;10.18;;;2.25;;
76636;SDS011;65532;52.124;5.480;2023-07-31T02:55:38;10.90;;;2.53;;
76636;SDS011;65532;52.124;5.480;2023-07-31T02:58:05;11.73;;;4.10;;
76636;SDS011;65532;52.124;5.480;2023-07-31T03:00:31;9.07;;;1.92;;
76636;SDS011;65532;52.124;5.480;2023-07-31T03:02:58;11.27;;;1.85;;
76636;SDS011;65532;52.124;5.480;2023-07-31T03:05:24;12.57;;;3.60;;
76636;SDS011;65532;52.124;5.480;2023-07-31T03:07:51;11.30;;;2.97;;
76636;SDS011;65532;52.124;5.480;2023-07-31T03:10:17;12.65;;;2.92;;
76636;SDS011;65532;52.124;5.480;2023-07-31T03:12:46;14.57;;;2.78;;
76636;SDS011;65532;52.124;5.480;2023-07-31T03:15:14;11.02;;;3.45;;
76636;SDS011;65532;52.124;5.480;2023-07-31T03:17:40;15.05;;;3.88;;
76636;SDS011;65532;52.124;5.480;2023-07-31T03:20:07;11.05;;;3.45;;
76636;SDS011;65532;52.124;5.480;2023-07-31T03:22:35;10.73;;;3.70;;
76636;SDS011;65532;52.124;5.480;2023-07-31T03:25:05;12.88;;;2.70;;
76636;SDS011;65532;52.124;5.480;2023-07-31T03:27:32;12.55;;;3.10;;
76636;SDS011;65532;52.124;5.480;2023-07-31T03:29:59;14.35;;;4.00;;
76636;SDS011;65532;52.124;5.480;2023-07-31T03:32:25;12.15;;;3.47;;
76636;SDS011;65532;52.124;5.480;2023-07-31T03:34:52;16.65;;;3.55;;
76636;SDS011;65532;52.124;5.480;2023-07-31T03:37:19;13.10;;;3.88;;
76636;SDS011;65532;52.124;5.480;2023-07-31T03:39:45;13.57;;;3.50;;
76636;SDS011;65532;52.124;5.480;2023-07-31T03:42:12;14.13;;;3.42;;
76636;SDS011;65532;52.124;5.480;2023-07-31T03:44:38;10.75;;;3.70;;
76636;SDS011;65532;52.124;5.480;2023-07-31T03:47:05;11.38;;;3.67;;
76636;SDS011;65532;52.124;5.480;2023-07-31T03:49:32;12.98;;;4.20;;
76636;SDS011;65532;52.124;5.480;2023-07-31T03:51:58;15.85;;;3.15;;
76636;SDS011;65532;52.124;5.480;2023-07-31T03:54:25;12.80;;;2.92;;
76636;SDS011;65532;52.124;5.480;2023-07-31T03:56:51;15.48;;;3.25;;
76636;SDS011;65532;52.124;5.480;2023-07-31T03:59:18;13.48;;;3.85;;
76636;SDS011;65532;52.124;5.480;2023-07-31T04:01:44;8.63;;;2.88;;
76636;SDS011;65532;52.124;5.480;2023-07-31T04:04:11;13.75;;;4.38;;
76636;SDS011;65532;52.124;5.480;2023-07-31T04:06:37;15.13;;;3.55;;
76636;SDS011;65532;52.124;5.480;2023-07-31T04:09:04;11.27;;;2.58;;
76636;SDS011;65532;52.124;5.480;2023-07-31T04:11:31;11.43;;;2.63;;
76636;SDS011;65532;52.124;5.480;2023-07-31T04:13:58;10.93;;;3.22;;
76636;SDS011;65532;52.124;5.480;2023-07-31T04:16:24;13.07;;;3.80;;
76636;SDS011;65532;52.124;5.480;2023-07-31T04:18:51;14.50;;;3.83;;
76636;SDS011;65532;52.124;5.480;2023-07-31T04:21:17;11.45;;;3.22;;
76636;SDS011;65532;52.124;5.480;2023-07-31T04:23:44;13.07;;;3.00;;
76636;SDS011;65532;52.124;5.480;2023-07-31T04:26:10;12.18;;;3.65;;
76636;SDS011;65532;52.124;5.480;2023-07-31T04:28:37;9.23;;;2.78;;
76636;SDS011;65532;52.124;5.480;2023-07-31T04:31:03;8.25;;;2.53;;
76636;SDS011;65532;52.124;5.480;2023-07-31T04:33:30;15.73;;;3.97;;
76636;SDS011;65532;52.124;5.480;2023-07-31T04:35:57;9.98;;;2.92;;
76636;SDS011;65532;52.124;5.480;2023-07-31T04:38:25;11.02;;;3.67;;
76636;SDS011;65532;52.124;5.480;2023-07-31T04:40:51;10.73;;;3.25;;
76636;SDS011;65532;52.124;5.480;2023-07-31T04:43:18;7.43;;;2.42;;
76636;SDS011;65532;52.124;5.480;2023-07-31T04:45:45;11.25;;;3.03;;
76636;SDS011;65532;52.124;5.480;2023-07-31T04:48:14;10.23;;;3.10;;
76636;SDS011;65532;52.124;5.480;2023-07-31T04:50:40;12.48;;;3.17;;
76636;SDS011;65532;52.124;5.480;2023-07-31T04:53:07;11.27;;;3.67;;
76636;SDS011;65532;52.124;5.480;2023-07-31T04:55:33;13.57;;;2.85;;
76636;SDS011;65532;52.124;5.480;2023-07-31T04:58:00;10.45;;;3.50;;
76636;SDS011;65532;52.124;5.480;2023-07-31T05:00:27;11.15;;;3.63;;
76636;SDS011;65532;52.124;5.480;2023-07-31T05:02:53;13.15;;;2.90;;
76636;SDS011;65532;52.124;5.480;2023-07-31T05:05:20;15.18;;;4.53;;
76636;SDS011;65532;52.124;5.480;2023-07-31T05:07:46;10.77;;;3.92;;
76636;SDS011;65532;52.124;5.480;2023-07-31T05:10:13;8.13;;;3.42;;
76636;SDS011;65532;52.124;5.480;2023-07-31T05:12:39;13.95;;;4.18;;
76636;SDS011;65532;52.124;5.480;2023-07-31T05:15:06;16.08;;;3.88;;
76636;SDS011;65532;52.124;5.480;2023-07-31T05:17:33;14.75;;;3.75;;
76636;SDS011;65532;52.124;5.480;2023-07-31T05:20:00;12.77;;;4.20;;
76636;SDS011;65532;52.124;5.480;2023-07-31T05:22:26;10.65;;;2.70;;
76636;SDS011;65532;52.124;5.480;2023-07-31T05:24:53;8.90;;;3.10;;
76636;SDS011;65532;52.124;5.480;2023-07-31T05:27:20;9.15;;;3.10;;
76636;SDS011;65532;52.124;5.480;2023-07-31T05:29:47;8.02;;;2.60;;
76636;SDS011;65532;52.124;5.480;2023-07-31T05:32:13;6.65;;;2.38;;
76636;SDS011;65532;52.124;5.480;2023-07-31T05:34:40;12.65;;;3.67;;
76636;SDS011;65532;52.124;5.480;2023-07-31T05:37:06;10.65;;;2.13;;
76636;SDS011;65532;52.124;5.480;2023-07-31T05:39:33;14.55;;;2.25;;
76636;SDS011;65532;52.124;5.480;2023-07-31T05:41:59;8.93;;;2.08;;
76636;SDS011;65532;52.124;5.480;2023-07-31T05:44:26;5.93;;;1.05;;
76636;SDS011;65532;52.124;5.480;2023-07-31T05:46:52;6.18;;;1.73;;
76636;SDS011;65532;52.124;5.480;2023-07-31T05:49:19;6.40;;;2.70;;
76636;SDS011;65532;52.124;5.480;2023-07-31T05:51:45;6.07;;;1.25;;
76636;SDS011;65532;52.124;5.480;2023-07-31T05:54:12;5.55;;;2.05;;
76636;SDS011;65532;52.124;5.480;2023-07-31T05:56:38;5.18;;;1.45;;
76636;SDS011;65532;52.124;5.480;2023-07-31T05:59:05;7.20;;;2.17;;
76636;SDS011;65532;52.124;5.480;2023-07-31T06:01:32;5.35;;;2.72;;
76636;SDS011;65532;52.124;5.480;2023-07-31T06:03:59;7.15;;;2.58;;
76636;SDS011;65532;52.124;5.480;2023-07-31T06:06:25;8.35;;;3.45;;
76636;SDS011;65532;52.124;5.480;2023-07-31T06:08:52;6.50;;;3.53;;
76636;SDS011;65532;52.124;5.480;2023-07-31T06:11:19;6.68;;;2.63;;
76636;SDS011;65532;52.124;5.480;2023-07-31T06:13:46;10.18;;;2.60;;
76636;SDS011;65532;52.124;5.480;2023-07-31T06:16:14;6.93;;;2.38;;
76636;SDS011;65532;52.124;5.480;2023-07-31T06:18:41;7.75;;;3.88;;
76636;SDS011;65532;52.124;5.480;2023-07-31T06:21:09;7.00;;;1.83;;
76636;SDS011;65532;52.124;5.480;2023-07-31T06:23:36;6.72;;;2.95;;
76636;SDS011;65532;52.124;5.480;2023-07-31T06:26:02;6.45;;;2.10;;
76636;SDS011;65532;52.124;5.480;2023-07-31T06:28:29;3.25;;;1.50;;
76636;SDS011;65532;52.124;5.480;2023-07-31T06:30:57;9.15;;;3.03;;
76636;SDS011;65532;52.124;5.480;2023-07-31T06:33:24;6.72;;;1.83;;
76636;SDS011;65532;52.124;5.480;2023-07-31T06:35:51;6.78;;;2.00;;
76636;SDS011;65532;52.124;5.480;2023-07-31T06:38:21;5.43;;;1.50;;
76636;SDS011;65532;52.124;5.480;2023-07-31T06:40:49;3.88;;;1.88;;
76636;SDS011;65532;52.124;5.480;2023-07-31T06:43:15;6.95;;;1.63;;
76636;SDS011;65532;52.124;5.480;2023-07-31T06:45:42;5.00;;;2.05;;
76636;SDS011;65532;52.124;5.480;2023-07-31T06:48:09;4.30;;;1.80;;
76636;SDS011;65532;52.124;5.480;2023-07-31T06:50:36;3.88;;;1.45;;
76636;SDS011;65532;52.124;5.480;2023-07-31T06:53:03;5.88;;;1.63;;
76636;SDS011;65532;52.124;5.480;2023-07-31T06:55:30;5.70;;;1.02;;
76636;SDS011;65532;52.124;5.480;2023-07-31T06:57:56;4.55;;;1.73;;
76636;SDS011;65532;52.124;5.480;2023-07-31T07:00:23;5.53;;;1.95;;
76636;SDS011;65532;52.124;5.480;2023-07-31T07:02:50;5.00;;;1.40;;
76636;SDS011;65532;52.124;5.480;2023-07-31T07:05:18;5.13;;;1.13;;
76636;SDS011;65532;52.124;5.480;2023-07-31T07:07:44;4.95;;;1.33;;
76636;SDS011;65532;52.124;5.480;2023-07-31T07:10:11;3.97;;;1.05;;
76636;SDS011;65532;52.124;5.480;2023-07-31T07:12:38;3.40;;;1.85;;
76636;SDS011;65532;52.124;5.480;2023-07-31T07:15:04;3.35;;;2.00;;
76636;SDS011;65532;52.124;5.480;2023-07-31T07:17:31;4.25;;;1.23;;
76636;SDS011;65532;52.124;5.480;2023-07-31T07:19:58;4.97;;;1.63;;
76636;SDS011;65532;52.124;5.480;2023-07-31T07:22:26;9.27;;;1.63;;
76636;SDS011;65532;52.124;5.480;2023-07-31T07:24:53;5.80;;;1.30;;
76636;SDS011;65532;52.124;5.480;2023-07-31T07:27:20;3.17;;;1.38;;
76636;SDS011;65532;52.124;5.480;2023-07-31T07:29:46;3.97;;;1.77;;
76636;SDS011;65532;52.124;5.480;2023-07-31T07:32:13;5.30;;;1.98;;
76636;SDS011;65532;52.124;5.480;2023-07-31T07:34:39;3.97;;;1.33;;
76636;SDS011;65532;52.124;5.480;2023-07-31T07:37:06;4.70;;;2.35;;
76636;SDS011;65532;52.124;5.480;2023-07-31T07:39:32;3.40;;;1.73;;
76636;SDS011;65532;52.124;5.480;2023-07-31T07:41:59;5.18;;;2.28;;
76636;SDS011;65532;52.124;5.480;2023-07-31T07:44:25;4.72;;;1.77;;
76636;SDS011;65532;52.124;5.480;2023-07-31T07:46:53;4.43;;;1.45;;
76636;SDS011;65532;52.124;5.480;2023-07-31T07:49:19;4.53;;;1.67;;
76636;SDS011;65532;52.124;5.480;2023-07-31T07:51:48;3.63;;;1.73;;
76636;SDS011;65532;52.124;5.480;2023-07-31T07:54:16;4.40;;;2.35;;
76636;SDS011;65532;52.124;5.480;2023-07-31T07:56:47;3.42;;;2.17;;
76636;SDS011;65532;52.124;5.480;2023-07-31T07:59:14;4.45;;;1.38;;
76636;SDS011;65532;52.124;5.480;2023-07-31T08:01:40;2.85;;;1.40;;
76636;SDS011;65532;52.124;5.480;2023-07-31T08:04:07;3.33;;;1.88;;
76636;SDS011;65532;52.124;5.480;2023-07-31T08:06:34;3.28;;;1.63;;
76636;SDS011;65532;52.124;5.480;2023-07-31T08:09:01;3.17;;;1.00;;
76636;SDS011;65532;52.124;5.480;2023-07-31T08:11:32;2.85;;;1.17;;
76636;SDS011;65532;52.124;5.480;2023-07-31T08:13:59;4.25;;;1.80;;
76636;SDS011;65532;52.124;5.480;2023-07-31T08:16:26;5.65;;;0.98;;
76636;SDS011;65532;52.124;5.480;2023-07-31T08:18:53;2.80;;;0.73;;
76636;SDS011;65532;52.124;5.480;2023-07-31T08:21:19;5.85;;;0.93;;
76636;SDS011;65532;52.124;5.480;2023-07-31T08:23:47;4.05;;;0.75;;
76636;SDS011;65532;52.124;5.480;2023-07-31T08:26:17;2.83;;;1.63;;
76636;SDS011;65532;52.124;5.480;2023-07-31T08:28:44;3.47;;;0.93;;
76636;SDS011;65532;52.124;5.480;2023-07-31T08:31:11;2.53;;;0.95;;
76636;SDS011;65532;52.124;5.480;2023-07-31T08:33:38;2.40;;;1.23;;
76636;SDS011;65532;52.124;5.480;2023-07-31T08:36:05;2.47;;;1.00;;
76636;SDS011;65532;52.124;5.480;2023-07-31T08:38:32;3.53;;;1.63;;
76636;SDS011;65532;52.124;5.480;2023-07-31T08:40:59;2.72;;;1.40;;
76636;SDS011;65532;52.124;5.480;2023-07-31T08:43:25;2.13;;;1.05;;
76636;SDS011;65532;52.124;5.480;2023-07-31T08:45:53;2.67;;;1.95;;
76636;SDS011;65532;52.124;5.480;2023-07-31T08:48:23;2.78;;;1.63;;
76636;SDS011;65532;52.124;5.480;2023-07-31T08:50:53;2.80;;;1.17;;
76636;SDS011;65532;52.124;5.480;2023-07-31T08:53:20;1.98;;;0.60;;
76636;SDS011;65532;52.124;5.480;2023-07-31T08:55:47;2.25;;;0.60;;
76636;SDS011;65532;52.124;5.480;2023-07-31T08:58:15;2.38;;;0.70;;
76636;SDS011;65532;52.124;5.480;2023-07-31T09:00:43;4.00;;;0.95;;
76636;SDS011;65532;52.124;5.480;2023-07-31T09:05:44;2.35;;;0.68;;
76636;SDS011;65532;52.124;5.480;2023-07-31T09:08:12;3.88;;;0.93;;
76636;SDS011;65532;52.124;5.480;2023-07-31T09:10:41;2.40;;;0.57;;
76636;SDS011;65532;52.124;5.480;2023-07-31T09:13:08;3.03;;;0.63;;
76636;SDS011;65532;52.124;5.480;2023-07-31T09:15:38;6.30;;;0.93;;
76636;SDS011;65532;52.124;5.480;2023-07-31T09:18:06;3.28;;;1.88;;
76636;SDS011;65532;52.124;5.480;2023-07-31T09:20:34;2.60;;;0.95;;
76636;SDS011;65532;52.124;5.480;2023-07-31T09:23:11;2.55;;;0.60;;
76636;SDS011;65532;52.124;5.480;2023-07-31T09:25:39;2.28;;;0.63;;
76636;SDS011;65532;52.124;5.480;2023-07-31T09:28:11;4.20;;;1.25;;
76636;SDS011;65532;52.124;5.480;2023-07-31T09:30:49;2.95;;;1.52;;
76636;SDS011;65532;52.124;5.480;2023-07-31T09:33:17;3.97;;;1.30;;
76636;SDS011;65532;52.124;5.480;2023-07-31T09:35:45;2.92;;;0.70;;
76636;SDS011;65532;52.124;5.480;2023-07-31T09:38:14;3.50;;;0.82;;
76636;SDS011;65532;52.124;5.480;2023-07-31T09:40:45;2.58;;;0.60;;
76636;SDS011;65532;52.124;5.480;2023-07-31T09:43:17;2.33;;;0.88;;
76636;SDS011;65532;52.124;5.480;2023-07-31T09:45:45;4.72;;;1.35;;
76636;SDS011;65532;52.124;5.480;2023-07-31T09:48:13;3.05;;;1.13;;
76636;SDS011;65532;52.124;5.480;2023-07-31T09:50:47;3.58;;;1.23;;
76636;SDS011;65532;52.124;5.480;2023-07-31T09:53:15;3.83;;;0.93;;
76636;SDS011;65532;52.124;5.480;2023-07-31T09:55:45;2.60;;;1.23;;
76636;SDS011;65532;52.124;5.480;2023-07-31T09:58:12;3.10;;;0.95;;
76636;SDS011;65532;52.124;5.480;2023-07-31T10:00:39;2.38;;;0.90;;
76636;SDS011;65532;52.124;5.480;2023-07-31T10:03:09;4.85;;;1.65;;
76636;SDS011;65532;52.124;5.480;2023-07-31T10:05:40;3.42;;;1.00;;
76636;SDS011;65532;52.124;5.480;2023-07-31T10:08:11;4.63;;;1.20;;
76636;SDS011;65532;52.124;5.480;2023-07-31T10:10:44;2.63;;;0.63;;
76636;SDS011;65532;52.124;5.480;2023-07-31T10:13:11;2.65;;;1.77;;
76636;SDS011;65532;52.124;5.480;2023-07-31T10:15:39;3.60;;;1.52;;
76636;SDS011;65532;52.124;5.480;2023-07-31T10:18:07;3.38;;;1.15;;
76636;SDS011;65532;52.124;5.480;2023-07-31T10:20:34;3.75;;;1.33;;
76636;SDS011;65532;52.124;5.480;2023-07-31T10:23:02;4.63;;;1.23;;
76636;SDS011;65532;52.124;5.480;2023-07-31T10:25:29;5.28;;;1.92;;
76636;SDS011;65532;52.124;5.480;2023-07-31T10:27:58;4.80;;;1.25;;
76636;SDS011;65532;52.124;5.480;2023-07-31T10:30:26;4.70;;;1.20;;
76636;SDS011;65532;52.124;5.480;2023-07-31T10:32:55;5.90;;;1.77;;
76636;SDS011;65532;52.124;5.480;2023-07-31T10:35:22;3.10;;;0.98;;
76636;SDS011;65532;52.124;5.480;2023-07-31T10:37:49;5.13;;;1.50;;
76636;SDS011;65532;52.124;5.480;2023-07-31T10:40:17;4.32;;;1.50;;
76636;SDS011;65532;52.124;5.480;2023-07-31T10:45:24;3.65;;;1.77;;
76636;SDS011;65532;52.124;5.480;2023-07-31T10:48:01;4.53;;;1.77;;
76636;SDS011;65532;52.124;5.480;2023-07-31T10:50:52;4.53;;;2.42;;
76636;SDS011;65532;52.124;5.480;2023-07-31T10:53:22;4.88;;;2.00;;
76636;SDS011;65532;52.124;5.480;2023-07-31T10:56:08;3.83;;;1.13;;
76636;SDS011;65532;52.124;5.480;2023-07-31T10:58:36;3.42;;;1.33;;
76636;SDS011;65532;52.124;5.480;2023-07-31T11:01:04;4.20;;;1.90;;
76636;SDS011;65532;52.124;5.480;2023-07-31T11:06:11;3.78;;;0.90;;
76636;SDS011;65532;52.124;5.480;2023-07-31T11:08:44;3.08;;;1.60;;
76636;SDS011;65532;52.124;5.480;2023-07-31T11:11:12;5.43;;;1.88;;
76636;SDS011;65532;52.124;5.480;2023-07-31T11:16:13;4.55;;;2.05;;
76636;SDS011;65532;52.124;5.480;2023-07-31T11:18:40;2.72;;;1.23;;
76636;SDS011;65532;52.124;5.480;2023-07-31T11:21:11;2.75;;;0.95;;
76636;SDS011;65532;52.124;5.480;2023-07-31T11:23:39;2.45;;;0.70;;
76636;SDS011;65532;52.124;5.480;2023-07-31T11:26:06;2.22;;;0.95;;
76636;SDS011;65532;52.124;5.480;2023-07-31T11:28:33;2.55;;;1.23;;
76636;SDS011;65532;52.124;5.480;2023-07-31T11:31:01;3.60;;;1.17;;
76636;SDS011;65532;52.124;5.480;2023-07-31T11:33:28;2.90;;;0.82;;
76636;SDS011;65532;52.124;5.480;2023-07-31T11:35:55;2.90;;;1.60;;
76636;SDS011;65532;52.124;5.480;2023-07-31T11:38:26;3.15;;;0.85;;
76636;SDS011;65532;52.124;5.480;2023-07-31T11:40:54;1.60;;;0.40;;
76636;SDS011;65532;52.124;5.480;2023-07-31T11:43:22;2.83;;;0.90;;
76636;SDS011;65532;52.124;5.480;2023-07-31T11:45:54;2.88;;;1.25;;
76636;SDS011;65532;52.124;5.480;2023-07-31T11:48:26;3.05;;;1.00;;
76636;SDS011;65532;52.124;5.480;2023-07-31T11:50:57;3.42;;;1.50;;
76636;SDS011;65532;52.124;5.480;2023-07-31T11:55:59;3.40;;;1.23;;
76636;SDS011;65532;52.124;5.480;2023-07-31T11:58:27;3.58;;;0.98;;
76636;SDS011;65532;52.124;5.480;2023-07-31T12:00:55;4.75;;;0.85;;
76636;SDS011;65532;52.124;5.480;2023-07-31T12:03:23;2.60;;;1.13;;
76636;SDS011;65532;52.124;5.480;2023-07-31T12:05:50;4.22;;;2.47;;
76636;SDS011;65532;52.124;5.480;2023-07-31T12:08:21;3.83;;;1.42;;
76636;SDS011;65532;52.124;5.480;2023-07-31T12:10:50;3.65;;;1.23;;
76636;SDS011;65532;52.124;5.480;2023-07-31T12:13:21;3.80;;;1.67;;
76636;SDS011;65532;52.124;5.480;2023-07-31T12:15:49;4.22;;;2.00;;
76636;SDS011;65532;52.124;5.480;2023-07-31T12:18:21;3.92;;;1.85;;
76636;SDS011;65532;52.124;5.480;2023-07-31T12:20:58;3.03;;;1.60;;
76636;SDS011;65532;52.124;5.480;2023-07-31T12:23:27;3.58;;;0.90;;
76636;SDS011;65532;52.124;5.480;2023-07-31T12:28:42;4.15;;;2.10;;
76636;SDS011;65532;52.124;5.480;2023-07-31T12:31:13;3.13;;;0.93;;
76636;SDS011;65532;52.124;5.480;2023-07-31T12:33:40;4.18;;;1.23;;
76636;SDS011;65532;52.124;5.480;2023-07-31T12:36:09;3.35;;;1.00;;
76636;SDS011;65532;52.124;5.480;2023-07-31T12:38:37;2.60;;;1.35;;
76636;SDS011;65532;52.124;5.480;2023-07-31T12:41:04;2.35;;;0.60;;
76636;SDS011;65532;52.124;5.480;2023-07-31T12:43:33;2.40;;;1.40;;
76636;SDS011;65532;52.124;5.480;2023-07-31T12:46:00;2.53;;;1.02;;
76636;SDS011;65532;52.124;5.480;2023-07-31T12:48:26;3.00;;;1.02;;
76636;SDS011;65532;52.124;5.480;2023-07-31T12:50:53;3.20;;;1.50;;
76636;SDS011;65532;52.124;5.480;2023-07-31T12:53:20;3.25;;;1.20;;
76636;SDS011;65532;52.124;5.480;2023-07-31T12:55:46;3.70;;;1.33;;
76636;SDS011;65532;52.124;5.480;2023-07-31T12:58:13;3.50;;;1.23;;
76636;SDS011;65532;52.124;5.480;2023-07-31T13:00:39;5.20;;;2.67;;
76636;SDS011;65532;52.124;5.480;2023-07-31T13:03:06;4.03;;;1.50;;
76636;SDS011;65532;52.124;5.480;2023-07-31T13:05:33;3.75;;;2.30;;
76636;SDS011;65532;52.124;5.480;2023-07-31T13:07:59;3.90;;;1.73;;
76636;SDS011;65532;52.124;5.480;2023-07-31T13:10:26;5.60;;;1.95;;
76636;SDS011;65532;52.124;5.480;2023-07-31T13:12:55;5.30;;;1.52;;
76636;SDS011;65532;52.124;5.480;2023-07-31T13:15:21;3.50;;;1.30;;
76636;SDS011;65532;52.124;5.480;2023-07-31T13:17:48;4.55;;;1.63;;
76636;SDS011;65532;52.124;5.480;2023-07-31T13:20:15;7.80;;;2.53;;
76636;SDS011;65532;52.124;5.480;2023-07-31T13:22:42;3.85;;;1.60;;
76636;SDS011;65532;52.124;5.480;2023-07-31T13:25:12;4.28;;;1.95;;
76636;SDS011;65532;52.124;5.480;2023-07-31T13:27:38;2.95;;;1.60;;
76636;SDS011;65532;52.124;5.480;2023-07-31T13:30:05;5.38;;;1.65;;
76636;SDS011;65532;52.124;5.480;2023-07-31T13:32:32;3.58;;;2.08;;
76636;SDS011;65532;52.124;5.480;2023-07-31T13:34:59;3.58;;;1.73;;
76636;SDS011;65532;52.124;5.480;2023-07-31T13:37:25;2.97;;;1.10;;
76636;SDS011;65532;52.124;5.480;2023-07-31T13:39:52;5.00;;;1.42;;
76636;SDS011;65532;52.124;5.480;2023-07-31T13:42:18;4.53;;;1.48;;
76636;SDS011;65532;52.124;5.480;2023-07-31T13:44:45;3.60;;;1.73;;
76636;SDS011;65532;52.124;5.480;2023-07-31T13:47:11;3.08;;;1.02;;
76636;SDS011;65532;52.124;5.480;2023-07-31T13:49:38;2.70;;;1.33;;
76636;SDS011;65532;52.124;5.480;2023-07-31T13:52:05;2.92;;;1.38;;
76636;SDS011;65532;52.124;5.480;2023-07-31T13:54:32;2.95;;;1.33;;
76636;SDS011;65532;52.124;5.480;2023-07-31T13:56:58;3.60;;;1.70;;
76636;SDS011;65532;52.124;5.480;2023-07-31T13:59:25;3.75;;;1.98;;
76636;SDS011;65532;52.124;5.480;2023-07-31T14:01:51;3.65;;;1.00;;
76636;SDS011;65532;52.124;5.480;2023-07-31T14:04:18;3.10;;;1.00;;
76636;SDS011;65532;52.124;5.480;2023-07-31T14:06:45;3.72;;;1.40;;
76636;SDS011;65532;52.124;5.480;2023-07-31T14:09:14;4.95;;;2.38;;
76636;SDS011;65532;52.124;5.480;2023-07-31T14:11:40;4.13;;;2.53;;
76636;SDS011;65532;52.124;5.480;2023-07-31T14:14:11;4.05;;;2.05;;
76636;SDS011;65532;52.124;5.480;2023-07-31T14:16:38;3.42;;;1.48;;
76636;SDS011;65532;52.124;5.480;2023-07-31T14:19:05;5.60;;;2.40;;
76636;SDS011;65532;52.124;5.480;2023-07-31T14:21:33;5.95;;;2.50;;
76636;SDS011;65532;52.124;5.480;2023-07-31T14:24:00;5.47;;;2.55;;
76636;SDS011;65532;52.124;5.480;2023-07-31T14:26:27;8.82;;;4.28;;
76636;SDS011;65532;52.124;5.480;2023-07-31T14:28:53;6.82;;;2.83;;
76636;SDS011;65532;52.124;5.480;2023-07-31T14:31:20;6.72;;;3.40;;
76636;SDS011;65532;52.124;5.480;2023-07-31T14:33:47;5.47;;;3.83;;
76636;SDS011;65532;52.124;5.480;2023-07-31T14:36:13;6.88;;;2.40;;
76636;SDS011;65532;52.124;5.480;2023-07-31T14:38:40;6.35;;;3.25;;
76636;SDS011;65532;52.124;5.480;2023-07-31T14:41:06;5.22;;;3.08;;
76636;SDS011;65532;52.124;5.480;2023-07-31T14:43:33;7.07;;;3.25;;
76636;SDS011;65532;52.124;5.480;2023-07-31T14:45:59;6.72;;;3.35;;
76636;SDS011;65532;52.124;5.480;2023-07-31T14:48:26;6.00;;;3.85;;
76636;SDS011;65532;52.124;5.480;2023-07-31T14:50:53;6.28;;;2.75;;
76636;SDS011;65532;52.124;5.480;2023-07-31T14:53:20;5.63;;;3.25;;
76636;SDS011;65532;52.124;5.480;2023-07-31T14:55:47;6.45;;;3.42;;
76636;SDS011;65532;52.124;5.480;2023-07-31T14:58:14;6.50;;;2.58;;
76636;SDS011;65532;52.124;5.480;2023-07-31T15:00:40;5.85;;;2.08;;
76636;SDS011;65532;52.124;5.480;2023-07-31T15:03:07;5.15;;;2.38;;
76636;SDS011;65532;52.124;5.480;2023-07-31T15:05:34;6.43;;;3.13;;
76636;SDS011;65532;52.124;5.480;2023-07-31T15:08:00;4.38;;;1.98;;
76636;SDS011;65532;52.124;5.480;2023-07-31T15:10:27;6.20;;;2.80;;
76636;SDS011;65532;52.124;5.480;2023-07-31T15:12:53;3.58;;;1.73;;